Time;durP1;ratioP1;P1;durP2;ratioP2;P2;SDS_P1;SDS_P2;PMS_P1;PMS_P2;Temp;Humidity;BMP_temperature;BMP_pressure;BME280_temperature;BME280_humidity;BME280_pressure;Samples;Min_cycle;Max_cycle;Signal;HPM_P1;HPM_P2
2022/04/09 00:00:21;;;;;;;10.80;5.40;;;;;;;-155.54;100.00;57697.75;4993179;28;20237;-59
2022/04/09 00:02:46;;;;;;;11.77;6.20;;;;;;;-155.54;100.00;57697.75;4996368;28;20106;-58
2022/04/09 00:05:12;;;;;;;8.50;5.07;;;;;;;-155.54;100.00;57697.75;4994612;28;20578;-60
2022/04/09 00:07:38;;;;;;;9.45;5.63;;;;;;;-155.54;100.00;57697.75;4995333;28;20524;-58
2022/04/09 00:10:05;;;;;;;12.40;6.35;;;;;;;-155.54;100.00;57697.75;4996269;28;20174;-59
2022/04/09 00:12:30;;;;;;;11.93;6.53;;;;;;;-155.54;100.00;57697.75;4992466;28;20091;-59
2022/04/09 00:14:56;;;;;;;13.32;8.10;;;;;;;-155.54;100.00;57697.75;4994450;28;20129;-61
2022/04/09 00:17:21;;;;;;;12.30;6.03;;;;;;;-155.54;100.00;57697.75;4995368;28;20091;-60
2022/04/09 00:19:48;;;;;;;10.23;5.95;;;;;;;-155.54;100.00;57697.75;4996847;28;20482;-59
2022/04/09 00:22:13;;;;;;;11.68;5.43;;;;;;;-155.54;100.00;57697.75;4995974;28;20140;-59
2022/04/09 00:24:38;;;;;;;8.38;5.18;;;;;;;-155.54;100.00;57697.75;4993394;28;20532;-59
2022/04/09 00:27:04;;;;;;;10.57;6.38;;;;;;;-155.54;100.00;57697.75;4993896;28;20372;-58
2022/04/09 00:29:29;;;;;;;12.32;6.07;;;;;;;-155.54;100.00;57697.75;4996497;28;20650;-60
2022/04/09 00:31:55;;;;;;;11.43;5.55;;;;;;;-155.54;100.00;57697.75;4998076;28;20098;-60
2022/04/09 00:34:20;;;;;;;10.18;4.88;;;;;;;-155.54;100.00;57697.75;5001033;28;20102;-59
2022/04/09 00:36:46;;;;;;;10.98;6.07;;;;;;;-155.54;100.00;57697.75;5004568;28;20070;-60
2022/04/09 00:39:11;;;;;;;12.73;6.88;;;;;;;-155.54;100.00;57697.75;5003027;28;20572;-57
2022/04/09 00:41:40;;;;;;;11.95;6.20;;;;;;;-155.54;100.00;57697.75;4985402;28;20117;-59
2022/04/09 00:44:15;;;;;;;12.57;6.22;;;;;;;-155.54;100.00;57697.75;5013147;28;20199;-59
2022/04/09 00:46:40;;;;;;;7.68;3.88;;;;;;;-155.54;100.00;57697.75;4998666;28;20194;-58
2022/04/09 00:49:05;;;;;;;8.30;4.35;;;;;;;-155.54;100.00;57697.75;4993424;28;20082;-58
2022/04/09 00:51:31;;;;;;;10.40;5.13;;;;;;;-155.54;100.00;57697.75;5007210;28;20102;-58
2022/04/09 00:53:57;;;;;;;11.98;4.47;;;;;;;-155.54;100.00;57697.75;5017521;28;20153;-59
2022/04/09 00:56:22;;;;;;;6.38;3.80;;;;;;;-155.54;100.00;57697.75;5018245;28;20378;-60
2022/04/09 00:58:55;;;;;;;11.55;5.03;;;;;;;-155.54;100.00;57697.75;5019371;28;20102;-61
2022/04/09 01:01:24;;;;;;;14.63;5.85;;;;;;;-155.54;100.00;57697.75;5017633;28;20298;-58
2022/04/09 01:03:49;;;;;;;5.60;3.92;;;;;;;-155.54;100.00;57697.75;5000372;28;20572;-59
2022/04/09 01:06:15;;;;;;;12.32;5.80;;;;;;;-155.54;100.00;57697.75;4999347;28;20125;-60
2022/04/09 01:08:40;;;;;;;12.70;6.32;;;;;;;-155.54;100.00;57697.75;4998212;28;20071;-57
2022/04/09 01:11:05;;;;;;;11.88;5.85;;;;;;;-155.54;100.00;57697.75;4999330;28;20121;-59
2022/04/09 01:13:31;;;;;;;14.57;7.05;;;;;;;-155.54;100.00;57697.75;4994944;28;20075;-59
2022/04/09 01:15:56;;;;;;;8.90;5.60;;;;;;;-155.54;100.00;57697.75;5001572;28;20105;-60
2022/04/09 01:18:22;;;;;;;12.95;6.05;;;;;;;-155.54;100.00;57697.75;5003110;28;20145;-58
2022/04/09 01:20:47;;;;;;;12.35;6.38;;;;;;;-155.54;100.00;57697.75;5003482;28;20075;-59
2022/04/09 01:23:12;;;;;;;16.98;8.20;;;;;;;-155.54;100.00;57697.75;4999400;28;20102;-59
2022/04/09 01:25:38;;;;;;;8.23;4.80;;;;;;;-155.54;100.00;57697.75;4998712;28;20082;-59
2022/04/09 01:28:04;;;;;;;9.93;4.25;;;;;;;-155.54;100.00;57697.75;5004035;28;20530;-59
2022/04/09 01:30:29;;;;;;;10.52;5.10;;;;;;;-155.54;100.00;57697.75;4993283;28;20263;-59
2022/04/09 01:32:55;;;;;;;13.93;5.28;;;;;;;-155.54;100.00;57697.75;5000213;28;20098;-60
2022/04/09 01:35:20;;;;;;;9.50;5.07;;;;;;;-155.54;100.00;57697.75;5002049;28;20482;-58
2022/04/09 01:37:46;;;;;;;9.98;4.78;;;;;;;-155.54;100.00;57697.75;5001397;28;20117;-60
2022/04/09 01:40:11;;;;;;;14.68;6.55;;;;;;;-155.54;100.00;57697.75;4984569;28;20619;-59
2022/04/09 01:42:37;;;;;;;13.80;5.63;;;;;;;-155.54;100.00;57697.75;5013474;28;20120;-58
2022/04/09 01:45:04;;;;;;;7.35;4.03;;;;;;;-155.54;100.00;57697.75;5025825;28;20073;-58
2022/04/09 01:47:29;;;;;;;5.85;4.10;;;;;;;-155.54;100.00;57697.75;5035466;28;20577;-59
2022/04/09 01:49:55;;;;;;;10.10;5.75;;;;;;;-155.54;100.00;57697.75;5032162;28;20093;-59
2022/04/09 01:52:20;;;;;;;12.80;5.53;;;;;;;-155.54;100.00;57697.75;5031489;28;20143;-58
2022/04/09 01:54:45;;;;;;;8.85;4.43;;;;;;;-155.54;100.00;57697.75;5031519;28;20175;-59
2022/04/09 01:57:11;;;;;;;11.77;5.45;;;;;;;-155.54;100.00;57697.75;5029528;28;20562;-59
2022/04/09 01:59:37;;;;;;;13.25;4.07;;;;;;;-155.54;100.00;57697.75;5034684;28;20133;-60
2022/04/09 02:02:02;;;;;;;8.95;4.65;;;;;;;-155.54;100.00;57697.75;5024999;28;20077;-60
2022/04/09 02:04:28;;;;;;;8.93;4.57;;;;;;;-155.54;100.00;57697.75;5038987;28;20165;-60
2022/04/09 02:06:54;;;;;;;12.07;5.18;;;;;;;-155.54;100.00;57697.75;5021262;28;20093;-58
2022/04/09 02:09:19;;;;;;;14.85;5.70;;;;;;;-155.54;100.00;57697.75;5016174;28;20500;-58
2022/04/09 02:11:45;;;;;;;9.38;5.15;;;;;;;-155.54;100.00;57697.75;4988680;28;20338;-60
2022/04/09 02:14:10;;;;;;;11.52;5.07;;;;;;;-155.54;100.00;57697.75;5003295;28;20085;-59
2022/04/09 02:16:36;;;;;;;14.23;4.82;;;;;;;-155.54;100.00;57697.75;4990753;28;20075;-58
2022/04/09 02:19:02;;;;;;;6.95;4.45;;;;;;;-155.54;100.00;57697.75;5012909;28;20121;-59
2022/04/09 02:21:28;;;;;;;20.35;7.50;;;;;;;-155.54;100.00;57697.75;5010445;28;20102;-60
2022/04/09 02:23:53;;;;;;;12.50;6.45;;;;;;;-155.54;100.00;57697.75;5038874;28;20105;-60
2022/04/09 02:26:19;;;;;;;15.60;7.80;;;;;;;-155.54;100.00;57697.75;5005562;28;20118;-59
2022/04/09 02:28:47;;;;;;;15.73;6.70;;;;;;;-155.54;100.00;57697.75;4993025;28;20115;-58
2022/04/09 02:31:13;;;;;;;12.00;5.30;;;;;;;-155.54;100.00;57697.75;4989586;28;20729;-58
2022/04/09 02:33:38;;;;;;;17.42;6.40;;;;;;;-155.54;100.00;57697.75;5002015;28;20083;-58
2022/04/09 02:36:05;;;;;;;10.48;4.88;;;;;;;-155.54;100.00;57697.75;4990113;28;20559;-59
2022/04/09 02:38:31;;;;;;;18.45;6.28;;;;;;;-155.54;100.00;57697.75;4994785;28;20119;-58
2022/04/09 02:40:56;;;;;;;16.60;6.28;;;;;;;-155.54;100.00;57697.75;4986283;28;20086;-59
2022/04/09 02:43:22;;;;;;;12.32;4.40;;;;;;;-155.54;100.00;57697.75;4995712;28;20114;-58
2022/04/09 02:45:47;;;;;;;10.75;4.47;;;;;;;-155.54;100.00;57697.75;4997617;28;20132;-59
2022/04/09 02:48:14;;;;;;;10.35;4.03;;;;;;;-155.54;100.00;57697.75;4997202;28;20107;-59
2022/04/09 02:50:40;;;;;;;11.85;5.03;;;;;;;-155.54;100.00;57697.75;4990070;28;20102;-58
2022/04/09 02:53:05;;;;;;;10.65;4.47;;;;;;;-155.54;100.00;57697.75;4994276;28;20078;-58
2022/04/09 02:55:31;;;;;;;15.10;4.72;;;;;;;-155.54;100.00;57697.75;5027864;28;20191;-59
2022/04/09 02:57:56;;;;;;;12.75;5.30;;;;;;;-155.54;100.00;57697.75;5041237;28;20082;-60
2022/04/09 03:00:22;;;;;;;15.80;5.47;;;;;;;-155.54;100.00;57697.75;5042522;28;20412;-59
2022/04/09 03:02:47;;;;;;;16.35;6.50;;;;;;;-155.54;100.00;57697.75;5003714;28;20365;-59
2022/04/09 03:05:13;;;;;;;14.00;5.32;;;;;;;-155.54;100.00;57697.75;4982036;28;20078;-58
2022/04/09 03:07:39;;;;;;;15.90;6.15;;;;;;;-155.54;100.00;57697.75;4984116;28;20133;-59
2022/04/09 03:10:04;;;;;;;13.50;5.70;;;;;;;-155.54;100.00;57697.75;5002627;28;20090;-58
2022/04/09 03:12:30;;;;;;;21.30;7.28;;;;;;;-155.54;100.00;57697.75;4998889;28;20185;-59
2022/04/09 03:14:55;;;;;;;18.25;7.70;;;;;;;-155.54;100.00;57697.75;4989453;28;20487;-58
2022/04/09 03:17:21;;;;;;;19.77;6.38;;;;;;;-155.54;100.00;57697.75;4993082;28;20090;-59
2022/04/09 03:19:46;;;;;;;21.70;8.82;;;;;;;-155.54;100.00;57697.75;5033342;28;20688;-59
2022/04/09 03:22:11;;;;;;;20.98;7.15;;;;;;;-155.54;100.00;57697.75;5014276;28;20084;-59
2022/04/09 03:24:37;;;;;;;21.58;7.10;;;;;;;-155.54;100.00;57697.75;4993448;28;20083;-59
2022/04/09 03:27:02;;;;;;;16.13;6.18;;;;;;;-155.54;100.00;57697.75;4988516;28;20117;-58
2022/04/09 03:29:28;;;;;;;16.63;7.72;;;;;;;-155.54;100.00;57697.75;5002333;28;20380;-59
2022/04/09 03:31:53;;;;;;;11.82;5.28;;;;;;;-155.54;100.00;57697.75;4993356;28;20449;-56
2022/04/09 03:34:19;;;;;;;17.98;5.82;;;;;;;-155.54;100.00;57697.75;5000945;28;20674;-59
2022/04/09 03:36:44;;;;;;;22.08;8.05;;;;;;;-155.54;100.00;57697.75;5015434;28;20344;-58
2022/04/09 03:39:10;;;;;;;9.82;4.88;;;;;;;-155.54;100.00;57697.75;5011733;28;20621;-57
2022/04/09 03:41:35;;;;;;;16.33;5.97;;;;;;;-155.54;100.00;57697.75;5012931;28;20074;-57
2022/04/09 03:44:01;;;;;;;17.52;6.80;;;;;;;-155.54;100.00;57697.75;5019611;28;20325;-59
2022/04/09 03:46:26;;;;;;;18.30;6.85;;;;;;;-155.54;100.00;57697.75;5010732;28;20290;-59
2022/04/09 03:48:52;;;;;;;19.10;7.43;;;;;;;-155.54;100.00;57697.75;5022000;28;20085;-58
2022/04/09 03:51:17;;;;;;;12.73;6.72;;;;;;;-155.54;100.00;57697.75;5018289;28;20109;-58
2022/04/09 03:53:42;;;;;;;10.10;4.80;;;;;;;-155.54;100.00;57697.75;5022249;28;20081;-59
2022/04/09 03:56:08;;;;;;;19.73;7.55;;;;;;;-155.54;100.00;57697.75;5019745;28;20490;-58
2022/04/09 03:58:36;;;;;;;15.70;6.45;;;;;;;-155.54;100.00;57697.75;5017206;28;20118;-59
2022/04/09 04:01:01;;;;;;;16.95;8.38;;;;;;;-155.54;100.00;57697.75;4985190;28;20126;-59
2022/04/09 04:03:28;;;;;;;17.60;7.25;;;;;;;-155.54;100.00;57697.75;4991002;28;20635;-60
2022/04/09 04:05:53;;;;;;;18.88;7.65;;;;;;;-155.54;100.00;57697.75;4989776;28;20083;-59
2022/04/09 04:08:19;;;;;;;31.42;6.13;;;;;;;-155.54;100.00;57697.75;5024289;28;20590;-60
2022/04/09 04:10:44;;;;;;;14.95;5.05;;;;;;;-155.54;100.00;57697.75;5043792;28;20648;-60
2022/04/09 04:13:11;;;;;;;15.02;7.47;;;;;;;-155.54;100.00;57697.75;5022532;28;20091;-59
2022/04/09 04:15:36;;;;;;;14.13;6.53;;;;;;;-155.54;100.00;57697.75;5040275;28;20553;-60
2022/04/09 04:18:02;;;;;;;20.55;6.50;;;;;;;-155.54;100.00;57697.75;5031417;28;20097;-60
2022/04/09 04:20:28;;;;;;;20.90;7.15;;;;;;;-155.54;100.00;57697.75;5045586;28;20077;-60
2022/04/09 04:22:53;;;;;;;18.38;6.50;;;;;;;-155.54;100.00;57697.75;5006975;28;20564;-58
2022/04/09 04:25:19;;;;;;;18.50;6.45;;;;;;;-155.54;100.00;57697.75;4986085;28;20173;-59
2022/04/09 04:27:46;;;;;;;20.08;6.13;;;;;;;-155.54;100.00;57697.75;4998346;28;20125;-60
2022/04/09 04:30:12;;;;;;;18.38;5.75;;;;;;;-155.54;100.00;57697.75;5003812;28;20185;-61
2022/04/09 04:32:37;;;;;;;22.05;6.60;;;;;;;-155.54;100.00;57697.75;5002030;28;20203;-59
2022/04/09 04:35:03;;;;;;;18.33;7.03;;;;;;;-155.54;100.00;57697.75;5003405;28;20110;-60
2022/04/09 04:37:41;;;;;;;14.88;6.50;;;;;;;-155.54;100.00;57697.75;4992589;28;20205;-60
2022/04/09 04:40:07;;;;;;;15.45;7.38;;;;;;;-155.54;100.00;57697.75;4994692;28;20121;-60
2022/04/09 04:42:33;;;;;;;14.00;5.45;;;;;;;-155.54;100.00;57697.75;4997061;28;20647;-60
2022/04/09 04:44:58;;;;;;;18.80;4.93;;;;;;;-155.54;100.00;57697.75;5025748;28;20113;-60
2022/04/09 04:47:24;;;;;;;18.15;5.57;;;;;;;-155.54;100.00;57697.75;5012684;28;20453;-59
2022/04/09 04:49:49;;;;;;;14.15;5.63;;;;;;;-155.54;100.00;57697.75;5023430;28;20574;-59
2022/04/09 04:52:14;;;;;;;15.98;5.25;;;;;;;-155.54;100.00;57697.75;5019969;28;20302;-60
2022/04/09 04:54:40;;;;;;;13.52;5.03;;;;;;;-155.54;100.00;57697.75;5024409;28;20459;-56
2022/04/09 04:57:05;;;;;;;15.68;6.82;;;;;;;-155.54;100.00;57697.75;5011176;28;20167;-57
2022/04/09 04:59:31;;;;;;;8.15;3.90;;;;;;;-155.54;100.00;57697.75;5024458;28;20474;-57
2022/04/09 05:01:56;;;;;;;10.73;4.40;;;;;;;-155.54;100.00;57697.75;5010283;28;20318;-57
2022/04/09 05:04:22;;;;;;;18.85;6.28;;;;;;;-155.54;100.00;57697.75;5012820;28;20074;-58
2022/04/09 05:06:49;;;;;;;10.98;4.45;;;;;;;-155.54;100.00;57697.75;5011766;28;20109;-58
2022/04/09 05:09:14;;;;;;;17.30;4.43;;;;;;;-155.54;100.00;57697.75;5019402;28;20204;-58
2022/04/09 05:11:40;;;;;;;12.60;4.28;;;;;;;-155.54;100.00;57697.75;5010424;28;20759;-59
2022/04/09 05:14:06;;;;;;;14.38;4.28;;;;;;;-155.54;100.00;57697.75;5017499;28;20090;-60
2022/04/09 05:16:31;;;;;;;12.70;4.70;;;;;;;-155.54;100.00;57697.75;5006645;28;20090;-59
2022/04/09 05:18:56;;;;;;;7.72;4.00;;;;;;;-155.54;100.00;57697.75;5015540;28;20156;-60
2022/04/09 05:21:22;;;;;;;8.90;3.83;;;;;;;-155.54;100.00;57697.75;5021720;28;20077;-58
2022/04/09 05:23:47;;;;;;;21.80;4.05;;;;;;;-155.54;100.00;57697.75;5015838;28;20192;-60
2022/04/09 05:26:13;;;;;;;12.30;4.57;;;;;;;-155.54;100.00;57697.75;5012617;28;20093;-60
2022/04/09 05:28:38;;;;;;;10.77;4.90;;;;;;;-155.54;100.00;57697.75;5018028;28;20134;-57
2022/04/09 05:31:04;;;;;;;12.68;3.78;;;;;;;-155.54;100.00;57697.75;5024276;28;20475;-57
2022/04/09 05:33:30;;;;;;;7.43;3.28;;;;;;;-155.54;100.00;57697.75;5022887;28;20529;-59
2022/04/09 05:35:56;;;;;;;20.08;4.75;;;;;;;-155.54;100.00;57697.75;5024032;28;20168;-58
2022/04/09 05:38:22;;;;;;;20.83;4.88;;;;;;;-155.54;100.00;57697.75;5018363;28;20599;-58
2022/04/09 05:40:47;;;;;;;12.55;4.32;;;;;;;-155.54;100.00;57697.75;5015219;28;20085;-57
2022/04/09 05:43:13;;;;;;;7.18;3.67;;;;;;;-155.54;100.00;57697.75;5022175;28;20114;-59
2022/04/09 05:45:38;;;;;;;8.75;3.58;;;;;;;-155.54;100.00;57697.75;5024015;28;20405;-59
2022/04/09 05:48:04;;;;;;;10.48;3.85;;;;;;;-155.54;100.00;57697.75;5014939;28;20109;-59
2022/04/09 05:50:29;;;;;;;3.95;2.40;;;;;;;-155.54;100.00;57697.75;5019318;28;20209;-58
2022/04/09 05:52:55;;;;;;;6.55;2.90;;;;;;;-155.54;100.00;57697.75;5022171;28;20085;-59
2022/04/09 05:55:20;;;;;;;5.35;2.33;;;;;;;-155.54;100.00;57697.75;5017487;28;20110;-58
2022/04/09 05:57:46;;;;;;;3.47;2.13;;;;;;;-155.54;100.00;57697.75;5017446;28;20096;-60
2022/04/09 06:00:13;;;;;;;3.72;2.05;;;;;;;-155.54;100.00;57697.75;5021700;28;20336;-58
2022/04/09 06:02:39;;;;;;;8.27;3.13;;;;;;;-155.54;100.00;57697.75;5016414;28;20780;-57
2022/04/09 06:05:06;;;;;;;3.63;2.53;;;;;;;-155.54;100.00;57697.75;5015463;28;20077;-59
2022/04/09 06:07:31;;;;;;;7.40;2.97;;;;;;;-155.54;100.00;57697.75;5013368;28;20121;-58
2022/04/09 06:09:57;;;;;;;9.05;3.78;;;;;;;-155.54;100.00;57697.75;5011494;28;20571;-59
2022/04/09 06:12:22;;;;;;;11.57;4.80;;;;;;;-155.54;100.00;57697.75;5016335;28;20074;-57
2022/04/09 06:14:48;;;;;;;9.40;3.97;;;;;;;-155.54;100.00;57697.75;5003242;28;20737;-59
2022/04/09 06:17:13;;;;;;;17.65;4.25;;;;;;;-155.54;100.00;57697.75;5017489;28;20134;-58
2022/04/09 06:19:39;;;;;;;13.77;4.05;;;;;;;-155.54;100.00;57697.75;5023143;28;20113;-59
2022/04/09 06:22:04;;;;;;;13.00;3.50;;;;;;;-155.54;100.00;57697.75;5022642;28;20105;-59
2022/04/09 06:24:29;;;;;;;16.55;5.18;;;;;;;-155.54;100.00;57697.75;5021881;28;20196;-59
2022/04/09 06:26:55;;;;;;;11.50;3.92;;;;;;;-155.54;100.00;57697.75;5018847;28;20110;-59
2022/04/09 06:29:20;;;;;;;10.35;4.32;;;;;;;-155.54;100.00;57697.75;5012450;28;20129;-59
2022/04/09 06:31:47;;;;;;;12.80;5.45;;;;;;;-155.54;100.00;57697.75;5015595;28;20635;-60
2022/04/09 06:34:16;;;;;;;15.75;5.72;;;;;;;-155.54;100.00;57697.75;5017194;28;20582;-59
2022/04/09 06:36:41;;;;;;;10.25;3.67;;;;;;;-155.54;100.00;57697.75;5017352;28;20073;-58
2022/04/09 06:39:08;;;;;;;19.27;3.38;;;;;;;-155.54;100.00;57697.75;5006920;28;20185;-60
2022/04/09 06:41:33;;;;;;;11.45;3.38;;;;;;;-155.54;100.00;57697.75;5015312;28;20497;-58
2022/04/09 06:43:59;;;;;;;13.82;3.25;;;;;;;-155.54;100.00;57697.75;5015575;28;20520;-60
2022/04/09 06:46:24;;;;;;;11.98;4.50;;;;;;;-155.54;100.00;57697.75;5017224;28;20424;-58
2022/04/09 06:48:50;;;;;;;14.38;4.40;;;;;;;-155.54;100.00;57697.75;5012678;28;20087;-60
2022/04/09 06:51:16;;;;;;;14.48;4.28;;;;;;;-155.54;100.00;57697.75;5017806;28;20385;-60
2022/04/09 06:53:41;;;;;;;13.35;4.10;;;;;;;-155.54;100.00;57697.75;5016085;28;20078;-60
2022/04/09 06:56:07;;;;;;;17.77;4.78;;;;;;;-155.54;100.00;57697.75;5011704;28;20114;-61
2022/04/09 06:58:33;;;;;;;17.23;4.93;;;;;;;-155.54;100.00;57697.75;5016191;28;20413;-60
2022/04/09 07:00:59;;;;;;;8.75;2.65;;;;;;;-155.54;100.00;57697.75;5017090;28;20160;-60
2022/04/09 07:03:25;;;;;;;11.68;4.05;;;;;;;-155.54;100.00;57697.75;5018581;28;20109;-59
2022/04/09 07:05:50;;;;;;;10.05;3.50;;;;;;;-155.54;100.00;57697.75;5017115;28;20193;-61
2022/04/09 07:08:16;;;;;;;9.15;4.05;;;;;;;-155.54;100.00;57697.75;5011310;28;20106;-60
2022/04/09 07:10:41;;;;;;;12.25;4.53;;;;;;;-155.54;100.00;57697.75;5016299;28;20533;-58
2022/04/09 07:13:07;;;;;;;16.50;4.40;;;;;;;-155.54;100.00;57697.75;5019147;28;20493;-58
2022/04/09 07:15:33;;;;;;;15.63;4.75;;;;;;;-155.54;100.00;57697.75;5003660;28;20094;-58
2022/04/09 07:17:58;;;;;;;16.70;4.82;;;;;;;-155.54;100.00;57697.75;5016477;28;20376;-57
2022/04/09 07:20:24;;;;;;;15.75;4.05;;;;;;;-155.54;100.00;57697.75;5003800;28;20594;-60
2022/04/09 07:22:49;;;;;;;10.82;3.75;;;;;;;-155.54;100.00;57697.75;5017728;28;20683;-58
2022/04/09 07:25:16;;;;;;;16.15;4.50;;;;;;;-155.54;100.00;57697.75;5014899;28;20448;-60
2022/04/09 07:27:46;;;;;;;15.88;3.95;;;;;;;-155.54;100.00;57697.75;5006390;28;20440;-58
2022/04/09 07:30:19;;;;;;;16.70;4.18;;;;;;;-155.54;100.00;57697.75;5010907;28;20645;-58
2022/04/09 07:32:45;;;;;;;13.90;3.83;;;;;;;-155.54;100.00;57697.75;5005530;28;20101;-60
2022/04/09 07:35:11;;;;;;;16.40;3.85;;;;;;;-155.54;100.00;57697.75;5008434;28;20185;-61
2022/04/09 07:37:44;;;;;;;17.27;4.53;;;;;;;-155.54;100.00;57697.75;5009750;28;20151;-57
2022/04/09 07:40:10;;;;;;;14.18;4.72;;;;;;;-155.54;100.00;57697.75;5017684;28;20113;-58
2022/04/09 07:42:36;;;;;;;10.82;3.13;;;;;;;-155.54;100.00;57697.75;5009713;28;20379;-58
2022/04/09 07:45:02;;;;;;;9.50;3.40;;;;;;;-155.54;100.00;57697.75;5011910;28;20713;-57
2022/04/09 07:47:27;;;;;;;13.77;3.53;;;;;;;-155.54;100.00;57697.75;5009221;28;20164;-58
2022/04/09 07:49:52;;;;;;;16.55;3.72;;;;;;;-155.54;100.00;57697.75;5011860;28;20121;-57
2022/04/09 07:52:18;;;;;;;14.23;4.00;;;;;;;-155.54;100.00;57697.75;5011078;28;20116;-59
2022/04/09 07:54:43;;;;;;;10.75;2.92;;;;;;;-155.54;100.00;57697.75;5017611;28;20105;-60
2022/04/09 07:57:09;;;;;;;9.43;3.17;;;;;;;-155.54;100.00;57697.75;5007082;28;20213;-61
2022/04/09 07:59:34;;;;;;;11.38;3.03;;;;;;;-155.54;100.00;57697.75;5009349;28;20120;-60
2022/04/09 08:01:59;;;;;;;10.90;3.63;;;;;;;-155.54;100.00;57697.75;5017503;28;20233;-61
2022/04/09 08:04:25;;;;;;;13.15;3.60;;;;;;;-155.54;100.00;57697.75;5018116;28;20117;-60
2022/04/09 08:06:50;;;;;;;13.73;3.47;;;;;;;-155.54;100.00;57697.75;5017452;28;20442;-58
2022/04/09 08:09:16;;;;;;;13.38;3.70;;;;;;;-155.54;100.00;57697.75;5017609;28;20542;-59
2022/04/09 08:11:42;;;;;;;7.72;2.45;;;;;;;-155.54;100.00;57697.75;5016972;28;20104;-59
2022/04/09 08:14:07;;;;;;;10.38;2.78;;;;;;;-155.54;100.00;57697.75;5005503;28;20132;-60
2022/04/09 08:16:33;;;;;;;10.73;2.85;;;;;;;-155.54;100.00;57697.75;5014953;28;20120;-58
2022/04/09 08:19:00;;;;;;;14.70;2.75;;;;;;;-155.54;100.00;57697.75;5015650;28;20106;-59
2022/04/09 08:21:26;;;;;;;13.48;3.00;;;;;;;-155.54;100.00;57697.75;5005497;28;20086;-58
2022/04/09 08:23:51;;;;;;;11.70;3.55;;;;;;;-155.54;100.00;57697.75;5011994;28;20129;-69
2022/04/09 08:26:17;;;;;;;20.10;4.20;;;;;;;-155.54;100.00;57697.75;5016990;28;20160;-69
2022/04/09 08:28:42;;;;;;;9.90;2.80;;;;;;;-155.54;100.00;57697.75;5017317;28;20148;-68
2022/04/09 08:31:08;;;;;;;10.25;3.22;;;;;;;-155.54;100.00;57697.75;5013700;28;20106;-67
2022/04/09 08:33:33;;;;;;;9.23;2.83;;;;;;;-155.54;100.00;57697.75;5000957;28;20408;-67
2022/04/09 08:36:02;;;;;;;11.25;2.90;;;;;;;-155.54;100.00;57697.75;5005911;28;20151;-65
2022/04/09 08:38:28;;;;;;;8.55;2.70;;;;;;;-155.54;100.00;57697.75;5011702;28;20604;-67
2022/04/09 08:40:54;;;;;;;12.07;3.10;;;;;;;-155.54;100.00;57697.75;5005203;28;23031;-66
2022/04/09 08:43:20;;;;;;;14.02;2.85;;;;;;;-155.54;100.00;57697.75;4999701;28;20345;-68
2022/04/09 08:45:45;;;;;;;10.70;2.65;;;;;;;-155.54;100.00;57697.75;5004470;28;20739;-66
2022/04/09 08:48:11;;;;;;;14.73;3.42;;;;;;;-155.54;100.00;57697.75;5008116;28;20106;-68
2022/04/09 08:50:36;;;;;;;11.90;2.80;;;;;;;-155.54;100.00;57697.75;5011006;28;20106;-67
2022/04/09 08:53:06;;;;;;;12.45;2.78;;;;;;;-155.54;100.00;57697.75;5011175;28;20452;-68
2022/04/09 08:55:34;;;;;;;23.13;3.55;;;;;;;-155.54;100.00;57697.75;5012817;28;20213;-67
2022/04/09 08:57:59;;;;;;;8.40;2.40;;;;;;;-155.54;100.00;57697.75;5014609;28;20113;-65
2022/04/09 09:00:25;;;;;;;10.52;3.00;;;;;;;-155.54;100.00;57697.75;5012314;28;20097;-67
2022/04/09 09:02:51;;;;;;;7.82;2.38;;;;;;;-155.54;100.00;57697.75;5016356;28;20499;-66
2022/04/09 09:05:30;;;;;;;19.63;3.35;;;;;;;-155.54;100.00;57697.75;5004167;28;20110;-67
2022/04/09 09:07:55;;;;;;;7.50;2.60;;;;;;;-155.54;100.00;57697.75;5018441;28;20578;-66
2022/04/09 09:10:21;;;;;;;14.45;2.88;;;;;;;-155.54;100.00;57697.75;5017730;28;20113;-66
2022/04/09 09:12:56;;;;;;;4.63;2.08;;;;;;;-155.54;100.00;57697.75;5010398;28;20105;-67
2022/04/09 09:15:22;;;;;;;13.48;3.40;;;;;;;-155.54;100.00;57697.75;5004037;28;20195;-67
2022/04/09 09:17:47;;;;;;;12.75;2.72;;;;;;;-155.54;100.00;57697.75;4992100;28;20443;-65
2022/04/09 09:20:15;;;;;;;7.68;2.20;;;;;;;-155.54;100.00;57697.75;5001281;28;20103;-66
2022/04/09 09:22:42;;;;;;;9.35;2.40;;;;;;;-155.54;100.00;57697.75;5009450;28;20327;-65
2022/04/09 09:25:09;;;;;;;7.15;1.95;;;;;;;-155.54;100.00;57697.75;5020507;28;20093;-66
2022/04/09 09:27:35;;;;;;;6.45;2.53;;;;;;;-155.54;100.00;57697.75;5010089;28;20135;-65
2022/04/09 09:30:00;;;;;;;6.93;2.70;;;;;;;-155.54;100.00;57697.75;5019741;28;20217;-65
2022/04/09 09:32:26;;;;;;;13.20;2.55;;;;;;;-155.54;100.00;57697.75;5006573;28;20457;-67
2022/04/09 09:34:55;;;;;;;8.80;2.55;;;;;;;-155.54;100.00;57697.75;5019227;28;20161;-67
2022/04/09 09:37:24;;;;;;;8.75;1.98;;;;;;;-155.54;100.00;57697.75;5018432;28;20084;-64
2022/04/09 09:39:50;;;;;;;6.90;1.83;;;;;;;-155.54;100.00;57697.75;4988066;28;20502;-67
2022/04/09 09:42:19;;;;;;;9.25;2.22;;;;;;;-155.54;100.00;57697.75;4998480;28;20082;-65
2022/04/09 09:44:45;;;;;;;8.27;2.72;;;;;;;-155.54;100.00;57697.75;4987551;28;20077;-66
2022/04/09 09:47:12;;;;;;;16.50;3.05;;;;;;;-155.54;100.00;57697.75;4998309;28;20142;-66
2022/04/09 09:49:58;;;;;;;10.43;2.20;;;;;;;-155.54;100.00;57697.75;4999675;28;20439;-68
2022/04/09 09:52:31;;;;;;;8.65;2.38;;;;;;;-155.54;100.00;57697.75;4991331;28;20245;-68
2022/04/09 09:54:58;;;;;;;10.15;2.92;;;;;;;-155.54;100.00;57697.75;4991789;28;20109;-67
2022/04/09 09:57:26;;;;;;;14.43;2.97;;;;;;;-155.54;100.00;57697.75;4998747;28;20139;-64
2022/04/09 09:59:52;;;;;;;9.23;2.53;;;;;;;-155.54;100.00;57697.75;4999734;28;20409;-66
2022/04/09 10:02:20;;;;;;;9.15;1.88;;;;;;;-155.54;100.00;57697.75;5004456;28;20125;-64
2022/04/09 10:04:46;;;;;;;9.73;2.45;;;;;;;-155.54;100.00;57697.75;5037409;28;20104;-65
2022/04/09 10:07:13;;;;;;;8.45;2.38;;;;;;;-155.54;100.00;57697.75;5037474;28;20109;-66
2022/04/09 10:09:39;;;;;;;9.68;2.67;;;;;;;-155.54;100.00;57697.75;5006207;28;20399;-67
2022/04/09 10:12:08;;;;;;;10.65;2.67;;;;;;;-155.54;100.00;57697.75;4993344;28;20126;-67
2022/04/09 10:14:33;;;;;;;7.07;2.15;;;;;;;-155.54;100.00;57697.75;5008109;28;20199;-67
2022/04/09 10:16:58;;;;;;;9.30;2.22;;;;;;;-155.54;100.00;57697.75;5026892;28;20555;-68
2022/04/09 10:19:25;;;;;;;7.90;2.25;;;;;;;-155.54;100.00;57697.75;5038228;28;20113;-68
2022/04/09 10:21:51;;;;;;;5.22;2.28;;;;;;;-155.54;100.00;57697.75;5018061;28;20109;-68
2022/04/09 10:24:22;;;;;;;9.57;2.88;;;;;;;-155.54;100.00;57697.75;4980725;28;20406;-67
2022/04/09 10:26:48;;;;;;;11.50;3.03;;;;;;;-155.54;100.00;57697.75;4973526;28;20113;-67
2022/04/09 10:29:13;;;;;;;9.05;3.30;;;;;;;-155.54;100.00;57697.75;5029968;28;20118;-68
2022/04/09 10:31:40;;;;;;;3.83;1.50;;;;;;;-155.54;100.00;57697.75;5025419;28;20109;-68
2022/04/09 10:34:07;;;;;;;4.28;2.13;;;;;;;-155.54;100.00;57697.75;5030375;28;20111;-68
2022/04/09 10:36:44;;;;;;;5.05;1.70;;;;;;;-155.54;100.00;57697.75;5025056;28;20070;-68
2022/04/09 10:39:31;;;;;;;6.28;1.80;;;;;;;-155.54;100.00;57697.75;5010963;28;20570;-66
2022/04/09 10:41:57;;;;;;;4.20;1.98;;;;;;;-155.54;100.00;57697.75;5005147;28;20421;-66
2022/04/09 10:44:44;;;;;;;5.50;2.10;;;;;;;-155.54;100.00;57697.75;5008218;28;20424;-69
2022/04/09 10:47:12;;;;;;;5.90;2.17;;;;;;;-155.54;100.00;57697.75;5018178;28;20129;-68
2022/04/09 10:49:37;;;;;;;3.97;1.70;;;;;;;-155.54;100.00;57697.75;5014929;28;20456;-66
2022/04/09 10:52:05;;;;;;;6.55;2.05;;;;;;;-155.54;100.00;57697.75;5013825;28;20121;-66
2022/04/09 10:54:31;;;;;;;6.95;2.38;;;;;;;-155.54;100.00;57697.75;5021594;28;20111;-65
2022/04/09 10:57:05;;;;;;;6.07;2.17;;;;;;;-155.54;100.00;57697.75;5003830;28;20124;-66
2022/04/09 10:59:31;;;;;;;11.20;2.92;;;;;;;-155.54;100.00;57697.75;5027987;28;20586;-65